createdAt,value
2018-03-15T00:03:26.723Z,-1.00
2018-03-15T00:05:54.999Z,-0.95
2018-03-15T00:08:23.348Z,-0.84
2018-03-15T00:10:51.609Z,-0.79
2018-03-15T00:13:20.639Z,-0.77
2018-03-15T00:15:50.752Z,-0.82
2018-03-15T00:18:19.025Z,-0.88
2018-03-15T00:20:48.047Z,-0.90
2018-03-15T00:23:16.307Z,-0.94
2018-03-15T00:25:45.340Z,-0.92
2018-03-15T00:28:13.607Z,-0.92
2018-03-15T00:30:41.863Z,-0.82
2018-03-15T00:33:10.148Z,-0.80
2018-03-15T00:35:38.403Z,-0.82
2018-03-15T00:38:06.656Z,-0.86
2018-03-15T00:40:34.924Z,-0.92
2018-03-15T00:43:03.182Z,-0.96
2018-03-15T00:45:31.447Z,-0.94
2018-03-15T00:47:59.700Z,-0.87
2018-03-15T00:50:27.972Z,-0.86
2018-03-15T00:52:56.232Z,-0.56
2018-03-15T00:55:24.498Z,-0.38
2018-03-15T00:57:52.759Z,-0.35
2018-03-15T01:00:21.020Z,-0.45
2018-03-15T01:02:51.305Z,-0.53
2018-03-15T01:05:19.577Z,-0.54
2018-03-15T01:07:47.835Z,-0.61
2018-03-15T01:10:16.088Z,-0.56
2018-03-15T01:12:45.124Z,-0.53
2018-03-15T01:15:13.385Z,-0.58
2018-03-15T01:17:41.644Z,-0.56
2018-03-15T01:20:10.783Z,-0.57
2018-03-15T01:22:39.032Z,-0.63
2018-03-15T01:25:07.303Z,-0.69
2018-03-15T01:27:36.325Z,-0.75
2018-03-15T01:30:05.132Z,-0.77
2018-03-15T01:32:33.404Z,-0.72
2018-03-15T01:35:01.670Z,-0.78
2018-03-15T01:37:29.924Z,-0.88
2018-03-15T01:39:58.960Z,-0.89
2018-03-15T01:42:27.209Z,-0.85
2018-03-15T01:44:56.228Z,-0.79
2018-03-15T01:47:24.504Z,-0.77
2018-03-15T01:49:52.756Z,-0.92
2018-03-15T01:52:21.008Z,-0.90
2018-03-15T01:54:49.279Z,-0.97
2018-03-15T01:57:17.539Z,-1.08
2018-03-15T01:59:45.836Z,-1.07
2018-03-15T02:02:14.076Z,-1.12
2018-03-15T02:04:43.099Z,-1.15
2018-03-15T02:07:11.399Z,-1.15
2018-03-15T02:09:40.362Z,-1.03
2018-03-15T02:12:09.389Z,-0.81
2018-03-15T02:14:37.644Z,-0.89
2018-03-15T02:17:05.896Z,-0.81
2018-03-15T02:19:34.149Z,-0.69
2018-03-15T02:22:02.802Z,-0.55
2018-03-15T02:24:31.045Z,-0.47
2018-03-15T02:26:59.304Z,-0.40
2018-03-15T02:29:27.624Z,-0.15
2018-03-15T02:31:56.268Z,-0.25
2018-03-15T02:34:24.529Z,-0.39
2018-03-15T02:36:52.795Z,-0.56
2018-03-15T02:39:21.062Z,-0.70
2018-03-15T02:41:49.325Z,-0.75
2018-03-15T02:44:18.360Z,-0.88
2018-03-15T02:46:46.612Z,-0.93
2018-03-15T02:49:15.652Z,-1.00
2018-03-15T02:51:43.909Z,-1.06
2018-03-15T02:54:12.180Z,-1.06
2018-03-15T02:56:40.444Z,-1.07
2018-03-15T02:59:09.471Z,-1.13
2018-03-15T03:01:37.740Z,-1.21
2018-03-15T03:04:06.008Z,-1.22
2018-03-15T03:06:35.036Z,-1.28
2018-03-15T03:09:03.284Z,-1.26
2018-03-15T03:11:32.316Z,-1.34
2018-03-15T03:14:00.577Z,-1.43
2018-03-15T03:16:29.597Z,-1.46
2018-03-15T03:18:57.852Z,-1.50
2018-03-15T03:21:26.111Z,-1.51
2018-03-15T03:23:55.143Z,-1.50
2018-03-15T03:26:23.400Z,-1.46
2018-03-15T03:28:53.671Z,-1.61
2018-03-15T03:31:21.944Z,-1.63
2018-03-15T03:33:50.212Z,-1.59
2018-03-15T03:36:18.478Z,-1.63
2018-03-15T03:38:47.503Z,-1.73
2018-03-15T03:41:15.770Z,-1.72
2018-03-15T03:43:44.021Z,-1.79
2018-03-15T03:46:13.048Z,-1.83
2018-03-15T03:48:41.308Z,-1.82
2018-03-15T03:51:10.340Z,-1.76
2018-03-15T03:53:38.600Z,-1.82
2018-03-15T03:56:07.091Z,-1.81
2018-03-15T03:58:35.369Z,-1.79
2018-03-15T04:01:03.624Z,-1.64
2018-03-15T04:03:32.650Z,-1.87
2018-03-15T04:06:02.165Z,-1.91
2018-03-15T04:08:30.423Z,-1.93
2018-03-15T04:10:59.482Z,-1.97
2018-03-15T04:13:27.737Z,-1.97
2018-03-15T04:15:55.987Z,-2.01
2018-03-15T04:18:24.288Z,-2.05
2018-03-15T04:20:52.539Z,-2.08
2018-03-15T04:23:20.803Z,-2.19
2018-03-15T04:25:49.080Z,-2.03
2018-03-15T04:28:17.325Z,-2.12
2018-03-15T04:30:45.580Z,-2.29
2018-03-15T04:33:13.849Z,-2.36
2018-03-15T04:35:42.135Z,-2.28
2018-03-15T04:38:10.373Z,-2.27
2018-03-15T04:40:38.628Z,-2.38
2018-03-15T04:43:06.908Z,-2.45
2018-03-15T04:45:35.165Z,-2.42
2018-03-15T04:48:03.436Z,-2.40
2018-03-15T04:50:31.688Z,-2.45
2018-03-15T04:53:00.716Z,-2.46
2018-03-15T04:55:28.989Z,-2.54
2018-03-15T04:57:57.242Z,-2.46
2018-03-15T05:00:25.508Z,-2.49
2018-03-15T05:02:53.780Z,-2.53
2018-03-15T05:05:22.028Z,-2.47
2018-03-15T05:07:50.287Z,-2.49
2018-03-15T05:10:18.568Z,-2.49
2018-03-15T05:12:47.590Z,-2.42
2018-03-15T05:15:15.887Z,-2.24
2018-03-15T05:17:44.163Z,-2.16
2018-03-15T05:20:12.422Z,-2.11
2018-03-15T05:22:40.677Z,-2.04
2018-03-15T05:25:09.732Z,-1.99
2018-03-15T05:27:37.976Z,-1.87
2018-03-15T05:30:06.236Z,-1.83
2018-03-15T05:32:35.463Z,-1.82
2018-03-15T05:35:03.717Z,-1.70
2018-03-15T05:37:32.751Z,-1.53
2018-03-15T05:40:01.028Z,-1.37
2018-03-15T05:42:29.322Z,-1.31
2018-03-15T05:44:57.580Z,-1.23
2018-03-15T05:47:25.872Z,-1.21
2018-03-15T05:49:54.124Z,-1.07
2018-03-15T05:52:23.145Z,-0.93
2018-03-15T05:54:51.407Z,-0.72
2018-03-15T05:57:19.720Z,-0.60
2018-03-15T05:59:47.973Z,-0.35
2018-03-15T06:02:16.238Z,-0.10
2018-03-15T06:04:45.272Z,0.17
2018-03-15T06:07:13.533Z,0.59
2018-03-15T06:09:41.781Z,0.88
2018-03-15T06:12:10.054Z,1.25
2018-03-15T06:14:38.309Z,1.45
2018-03-15T06:17:06.584Z,1.53
2018-03-15T06:19:34.840Z,1.63
2018-03-15T06:22:03.084Z,1.68
2018-03-15T06:24:31.360Z,1.79
2018-03-15T06:26:59.626Z,1.89
2018-03-15T06:29:27.880Z,2.12
2018-03-15T06:31:56.153Z,2.54
2018-03-15T06:34:24.400Z,3.43
2018-03-15T06:36:53.416Z,4.82
2018-03-15T06:39:21.698Z,6.17
2018-03-15T06:41:49.944Z,7.59
2018-03-15T06:44:18.189Z,8.94
2018-03-15T06:46:46.451Z,10.08
2018-03-15T06:49:14.724Z,11.21
2018-03-15T06:51:44.215Z,12.21
2018-03-15T06:54:13.261Z,11.73
2018-03-15T06:56:41.491Z,12.34
2018-03-15T06:59:10.512Z,11.94
2018-03-15T07:01:38.764Z,10.54
2018-03-15T07:04:07.782Z,9.51
2018-03-15T07:06:36.037Z,10.25
2018-03-15T07:09:05.052Z,11.56
2018-03-15T07:11:33.309Z,12.73
2018-03-15T07:14:02.328Z,12.60
2018-03-15T07:16:30.576Z,12.22
2018-03-15T07:18:58.831Z,12.30
2018-03-15T07:21:27.086Z,11.08
2018-03-15T07:23:55.337Z,10.30
2018-03-15T07:26:24.357Z,11.86
2018-03-15T07:28:52.604Z,13.52
2018-03-15T07:31:21.638Z,13.98
2018-03-15T07:33:49.879Z,15.27
2018-03-15T07:36:18.124Z,16.13
2018-03-15T07:38:46.379Z,16.18
2018-03-15T07:41:14.643Z,14.36
2018-03-15T07:43:43.664Z,13.29
2018-03-15T07:46:11.916Z,13.46
2018-03-15T07:48:40.940Z,13.31
2018-03-15T07:51:09.196Z,13.86
2018-03-15T07:53:38.203Z,13.01
2018-03-15T07:56:06.457Z,13.08
2018-03-15T07:58:35.468Z,12.98
2018-03-15T08:01:04.491Z,12.43
2018-03-15T08:03:32.732Z,11.70
2018-03-15T08:06:01.744Z,10.58
2018-03-15T08:08:30.768Z,9.14
2018-03-15T08:10:59.011Z,8.47
2018-03-15T08:13:28.021Z,8.54
2018-03-15T08:15:57.037Z,8.58
2018-03-15T08:18:25.276Z,9.01
2018-03-15T08:20:53.509Z,9.29
2018-03-15T08:23:21.755Z,9.32
2018-03-15T08:25:50.764Z,9.15
2018-03-15T08:28:19.020Z,9.44
2018-03-15T08:30:48.068Z,10.21
2018-03-15T08:33:16.327Z,9.80
2018-03-15T08:35:44.568Z,10.33
2018-03-15T08:38:12.837Z,11.08
2018-03-15T08:40:41.078Z,11.04
2018-03-15T08:43:09.326Z,10.36
2018-03-15T08:45:39.591Z,10.22
2018-03-15T08:48:07.832Z,10.75
2018-03-15T08:50:36.847Z,11.44
2018-03-15T08:53:05.100Z,10.36
2018-03-15T08:55:34.124Z,11.51
2018-03-15T08:58:02.363Z,12.07
2018-03-15T09:00:30.624Z,11.41
2018-03-15T09:03:00.700Z,11.86
2018-03-15T09:05:29.716Z,12.16
2018-03-15T09:07:57.981Z,13.37
2018-03-15T09:10:26.984Z,14.66
2018-03-15T09:12:55.238Z,13.25
2018-03-15T09:15:24.262Z,11.27
2018-03-15T09:17:52.509Z,10.91
2018-03-15T09:20:20.748Z,13.13
2018-03-15T09:22:49.007Z,14.34
2018-03-15T09:25:17.254Z,13.53
2018-03-15T09:27:45.487Z,15.01
2018-03-15T09:30:13.752Z,16.10
2018-03-15T09:32:42.009Z,16.03
2018-03-15T09:35:10.272Z,13.45
2018-03-15T09:37:38.512Z,14.60
2018-03-15T09:40:06.764Z,14.22
2018-03-15T09:42:35.004Z,13.55
2018-03-15T09:45:03.378Z,12.83
2018-03-15T09:47:31.615Z,12.87
2018-03-15T09:49:59.860Z,12.93
2018-03-15T09:52:28.882Z,13.01
2018-03-15T09:54:57.148Z,12.94
2018-03-15T09:57:26.162Z,13.73
2018-03-15T09:59:54.428Z,14.90
2018-03-15T10:02:23.435Z,15.53
2018-03-15T10:04:51.681Z,15.74
2018-03-15T10:07:19.939Z,15.33
2018-03-15T10:09:48.213Z,13.52
2018-03-15T10:12:16.456Z,13.91
2018-03-15T10:14:44.701Z,14.78
2018-03-15T10:17:12.969Z,14.67
2018-03-15T10:19:41.204Z,16.06
2018-03-15T10:22:09.535Z,16.99
2018-03-15T10:24:38.488Z,18.44
2018-03-15T10:27:06.732Z,19.00
2018-03-15T10:29:35.764Z,17.41
2018-03-15T10:32:04.012Z,18.16
2018-03-15T10:34:33.038Z,18.50
2018-03-15T10:37:02.137Z,18.45
2018-03-15T10:39:30.386Z,17.47
2018-03-15T10:41:59.414Z,15.99
2018-03-15T10:44:27.684Z,15.62
2018-03-15T10:46:55.928Z,17.08
2018-03-15T10:49:24.190Z,17.66
2018-03-15T10:51:52.811Z,14.38
2018-03-15T10:54:21.826Z,16.01
2018-03-15T10:56:50.086Z,18.40
2018-03-15T10:59:18.352Z,17.96
2018-03-15T11:01:52.117Z,16.56
2018-03-15T11:07:28.217Z,19.74
2018-03-15T11:09:56.740Z,18.50
2018-03-15T11:12:24.995Z,20.33
2018-03-15T11:14:53.242Z,19.54
2018-03-15T11:17:21.512Z,20.95
2018-03-15T11:19:49.764Z,19.01
2018-03-15T11:22:18.770Z,21.18
2018-03-15T11:24:47.243Z,21.38
2018-03-15T11:27:16.257Z,20.39
2018-03-15T11:29:44.511Z,22.05
2018-03-15T11:32:13.541Z,21.73
2018-03-15T11:34:41.792Z,18.29
2018-03-15T11:37:10.803Z,17.81
2018-03-15T11:39:39.648Z,19.37
2018-03-15T11:42:07.896Z,20.09
2018-03-15T11:44:36.141Z,22.78
2018-03-15T11:47:05.164Z,20.41
2018-03-15T11:49:33.428Z,18.84
2018-03-15T11:52:02.444Z,17.38
2018-03-15T11:54:30.703Z,15.51
2018-03-15T11:56:59.724Z,17.32
2018-03-15T11:59:27.988Z,17.31
2018-03-15T12:01:56.251Z,15.32
2018-03-15T12:04:25.280Z,14.73
2018-03-15T12:06:53.541Z,14.94
2018-03-15T12:09:22.553Z,16.23
2018-03-15T12:11:50.932Z,16.81
2018-03-15T12:14:19.180Z,16.48
2018-03-15T12:16:47.468Z,15.72
2018-03-15T12:19:16.484Z,15.52
2018-03-15T12:21:44.737Z,15.54
2018-03-15T12:24:13.001Z,16.43
2018-03-15T12:26:41.247Z,16.18
2018-03-15T12:29:09.504Z,18.42
2018-03-15T12:31:37.769Z,17.75
2018-03-15T12:34:06.780Z,18.27
2018-03-15T12:36:35.805Z,17.95
2018-03-15T12:39:04.059Z,17.87
2018-03-15T12:41:32.324Z,18.49
2018-03-15T12:44:01.340Z,18.63
2018-03-15T12:46:29.616Z,17.91
2018-03-15T12:48:58.625Z,17.42
2018-03-15T12:51:26.868Z,16.03
2018-03-15T12:53:55.142Z,15.83
2018-03-15T12:56:23.390Z,15.38
2018-03-15T12:58:51.632Z,14.86
2018-03-15T13:01:20.664Z,15.02
2018-03-15T13:03:48.932Z,14.46
2018-03-15T13:06:17.175Z,14.03
2018-03-15T13:08:46.208Z,13.87
2018-03-15T13:11:14.457Z,13.53
2018-03-15T13:13:43.464Z,13.63
2018-03-15T13:16:12.487Z,13.51
2018-03-15T13:18:40.736Z,13.02
2018-03-15T13:21:09.748Z,13.11
2018-03-15T13:23:39.593Z,13.28
2018-03-15T13:26:07.840Z,13.11
2018-03-15T13:28:36.092Z,12.94
2018-03-15T13:31:04.868Z,12.96
2018-03-15T13:33:33.134Z,12.75
2018-03-15T13:36:01.382Z,12.77
2018-03-15T13:38:29.642Z,12.58
2018-03-15T13:40:58.668Z,12.62
2018-03-15T13:43:27.704Z,12.92
2018-03-15T13:45:55.950Z,12.62
2018-03-15T13:48:24.193Z,12.71
2018-03-15T13:50:53.420Z,12.62
2018-03-15T13:53:21.669Z,12.36
2018-03-15T13:55:49.916Z,12.08
2018-03-15T13:58:18.190Z,11.85
2018-03-15T14:00:46.436Z,12.01
2018-03-15T14:03:14.688Z,12.08
2018-03-15T14:05:42.941Z,12.10
2018-03-15T14:08:11.195Z,12.16
2018-03-15T14:10:39.467Z,12.03
2018-03-15T14:13:07.732Z,11.94
2018-03-15T14:15:36.001Z,11.94
2018-03-15T14:18:05.012Z,12.08
2018-03-15T14:20:33.417Z,12.03
2018-03-15T14:23:01.680Z,11.73
2018-03-15T14:25:30.680Z,11.46
2018-03-15T14:27:58.949Z,11.53
2018-03-15T14:30:27.981Z,11.44
2018-03-15T14:32:56.239Z,11.30
2018-03-15T14:35:24.494Z,11.26
2018-03-15T14:37:52.764Z,11.10
2018-03-15T14:40:21.013Z,10.98
2018-03-15T14:42:49.267Z,11.22
2018-03-15T14:45:17.556Z,11.12
2018-03-15T14:47:45.851Z,11.31
2018-03-15T14:50:14.098Z,11.15
2018-03-15T14:52:42.365Z,11.16
2018-03-15T14:55:11.385Z,11.37
2018-03-15T14:57:39.640Z,11.43
2018-03-15T15:00:08.667Z,11.62
2018-03-15T15:02:36.917Z,11.29
2018-03-15T15:05:07.184Z,11.25
2018-03-15T15:07:35.432Z,11.19
2018-03-15T15:10:04.449Z,11.23
2018-03-15T15:12:32.712Z,10.98
2018-03-15T15:15:01.718Z,11.07
2018-03-15T15:17:29.973Z,11.07
2018-03-15T15:19:59.002Z,11.06
2018-03-15T15:22:27.265Z,10.98
2018-03-15T15:24:56.281Z,10.92
2018-03-15T15:27:24.550Z,10.91
2018-03-15T15:29:53.551Z,10.98
2018-03-15T15:32:21.796Z,10.95
2018-03-15T15:34:50.060Z,10.92
2018-03-15T15:37:18.332Z,10.93
2018-03-15T15:39:47.359Z,10.67
2018-03-15T15:42:16.372Z,10.53
2018-03-15T15:44:45.400Z,10.49
2018-03-15T15:47:13.648Z,10.49
2018-03-15T15:49:42.655Z,10.53
2018-03-15T15:52:10.919Z,10.28
2018-03-15T15:54:39.941Z,10.24
2018-03-15T15:57:08.197Z,10.12
2018-03-15T15:59:37.204Z,10.04
2018-03-15T16:02:05.460Z,9.95
2018-03-15T16:04:33.711Z,9.97
2018-03-15T16:07:01.956Z,9.94
2018-03-15T16:09:30.222Z,10.34
2018-03-15T16:11:58.765Z,10.04
2018-03-15T16:14:27.021Z,10.03
2018-03-15T16:16:55.276Z,10.08
2018-03-15T16:19:23.516Z,9.86
2018-03-15T16:21:51.774Z,9.93
2018-03-15T16:24:20.030Z,10.05
2018-03-15T16:26:48.268Z,9.71
2018-03-15T16:29:16.510Z,9.65
2018-03-15T16:31:44.774Z,9.58
2018-03-15T16:34:13.033Z,9.45
2018-03-15T16:36:42.043Z,9.53
2018-03-15T16:39:10.296Z,9.80
2018-03-15T16:41:39.310Z,9.47
2018-03-15T16:44:08.366Z,9.64
2018-03-15T16:46:36.625Z,9.53
2018-03-15T16:49:04.880Z,9.29
2018-03-15T16:51:33.132Z,9.32
2018-03-15T16:54:02.180Z,9.22
2018-03-15T16:56:30.439Z,9.06
2018-03-15T16:58:58.682Z,9.10
2018-03-15T17:01:26.961Z,9.20
2018-03-15T17:03:55.195Z,9.10
2018-03-15T17:06:23.468Z,8.90
2018-03-15T17:08:51.742Z,8.79
2018-03-15T17:11:20.023Z,8.75
2018-03-15T17:13:48.285Z,8.73
2018-03-15T17:16:17.345Z,8.89
2018-03-15T17:18:45.597Z,8.95
2018-03-15T17:21:13.853Z,8.64
2018-03-15T17:23:42.112Z,8.48
2018-03-15T17:26:11.144Z,8.33
2018-03-15T17:28:40.173Z,8.18
2018-03-15T17:31:09.120Z,8.07
2018-03-15T17:33:38.145Z,8.02
2018-03-15T17:36:06.417Z,7.99
2018-03-15T17:38:34.700Z,8.05
2018-03-15T17:41:02.978Z,7.87
2018-03-15T17:43:31.226Z,7.75
2018-03-15T17:46:01.499Z,7.69
2018-03-15T17:48:29.769Z,7.62
2018-03-15T17:50:58.057Z,7.59
2018-03-15T17:53:26.324Z,7.52
2018-03-15T17:55:54.596Z,7.42
2018-03-15T17:58:22.855Z,7.28
2018-03-15T18:00:51.877Z,7.18
2018-03-15T18:03:20.158Z,7.16
2018-03-15T18:05:48.420Z,7.17
2018-03-15T18:08:17.441Z,7.23
2018-03-15T18:10:45.711Z,7.64
2018-03-15T18:13:14.728Z,7.80
2018-03-15T18:15:43.046Z,7.50
2018-03-15T18:18:11.276Z,7.41
2018-03-15T18:20:39.557Z,7.43
2018-03-15T18:23:07.806Z,7.73
2018-03-15T18:25:36.840Z,7.82
2018-03-15T18:28:05.103Z,7.54
2018-03-15T18:30:33.376Z,7.76
2018-03-15T18:33:02.479Z,7.52
2018-03-15T18:35:30.673Z,7.58
2018-03-15T18:37:58.966Z,7.55
2018-03-15T18:40:27.224Z,7.41
2018-03-15T18:42:55.481Z,7.27
2018-03-15T18:45:23.724Z,7.22
2018-03-15T18:47:51.980Z,7.60
2018-03-15T18:50:20.237Z,7.45
2018-03-15T18:52:49.245Z,7.31
2018-03-15T18:55:17.509Z,7.23
2018-03-15T18:57:46.532Z,7.17
2018-03-15T19:00:15.539Z,7.08
2018-03-15T19:02:43.781Z,7.03
2018-03-15T19:05:12.811Z,7.09
2018-03-15T19:07:41.048Z,7.00
2018-03-15T19:10:09.305Z,6.89
2018-03-15T19:12:37.559Z,6.86
2018-03-15T19:15:05.822Z,6.83
2018-03-15T19:17:34.086Z,6.83
2018-03-15T19:20:03.093Z,6.97
2018-03-15T19:22:32.126Z,6.93
2018-03-15T19:25:00.413Z,6.87
2018-03-15T19:27:28.662Z,6.91
2018-03-15T19:29:56.921Z,6.93
2018-03-15T19:32:25.933Z,6.84
2018-03-15T19:34:54.240Z,6.76
2018-03-15T19:37:22.488Z,6.80
2018-03-15T19:39:51.499Z,6.69
2018-03-15T19:42:19.748Z,6.64
2018-03-15T19:44:48.790Z,6.73
2018-03-15T19:47:17.057Z,6.78
2018-03-15T19:49:45.300Z,6.60
2018-03-15T19:52:13.548Z,6.42
2018-03-15T19:54:41.822Z,6.32
2018-03-15T19:57:10.071Z,6.31
2018-03-15T19:59:38.324Z,6.33
2018-03-15T20:02:06.576Z,6.26
2018-03-15T20:04:34.824Z,6.20
2018-03-15T20:07:03.121Z,6.25
2018-03-15T20:09:32.093Z,6.21
2018-03-15T20:12:00.349Z,6.17
2018-03-15T20:14:29.373Z,6.17
2018-03-15T20:16:57.633Z,6.49
2018-03-15T20:19:26.652Z,6.29
2018-03-15T20:21:55.684Z,6.21
2018-03-15T20:24:29.341Z,6.17
2018-03-15T20:26:58.364Z,6.26
2018-03-15T20:29:26.620Z,6.83
2018-03-15T20:31:54.864Z,6.94
2018-03-15T20:34:23.129Z,6.61
2018-03-15T20:36:51.372Z,6.61
2018-03-15T20:39:25.148Z,6.51
2018-03-15T20:41:54.319Z,6.51
2018-03-15T20:44:22.564Z,6.75
2018-03-15T20:46:56.356Z,6.48
2018-03-15T20:49:26.600Z,6.59
2018-03-15T20:51:54.856Z,6.41
2018-03-15T20:54:23.883Z,6.32
2018-03-15T20:56:52.132Z,6.31
2018-03-15T20:59:21.154Z,6.21
2018-03-15T21:01:49.412Z,6.02
2018-03-15T21:04:17.668Z,6.34
2018-03-15T21:06:45.916Z,6.04
2018-03-15T21:09:14.176Z,6.11
2018-03-15T21:11:42.445Z,6.43
2018-03-15T21:14:10.696Z,6.23
2018-03-15T21:16:39.711Z,6.38
2018-03-15T21:19:08.732Z,6.36
2018-03-15T21:21:36.971Z,6.46
2018-03-15T21:24:05.988Z,6.41
2018-03-15T21:26:35.007Z,6.37
2018-03-15T21:29:03.253Z,6.50
2018-03-15T21:31:32.273Z,6.36
2018-03-15T21:34:00.534Z,6.54
2018-03-15T21:36:29.540Z,6.52
2018-03-15T21:38:57.796Z,6.71
2018-03-15T21:41:26.200Z,6.69
2018-03-15T21:43:54.494Z,6.71
2018-03-15T21:46:22.740Z,6.69
2018-03-15T21:48:51.000Z,6.77
2018-03-15T21:51:19.259Z,6.84
2018-03-15T21:53:47.509Z,6.89
2018-03-15T21:56:15.752Z,6.99
2018-03-15T21:58:44.008Z,6.88
2018-03-15T22:01:12.257Z,6.68
2018-03-15T22:03:40.792Z,6.61
2018-03-15T22:06:09.229Z,6.90
2018-03-15T22:08:37.517Z,6.80
2018-03-15T22:11:05.803Z,6.46
2018-03-15T22:13:34.101Z,6.67
2018-03-15T22:16:02.392Z,6.52
2018-03-15T22:18:30.683Z,6.70
2018-03-15T22:20:59.472Z,6.62
2018-03-15T22:23:27.778Z,6.63
2018-03-15T22:25:56.114Z,6.68
2018-03-15T22:28:24.406Z,6.78
2018-03-15T22:30:52.679Z,7.05
2018-03-15T22:33:20.974Z,7.11
2018-03-15T22:35:49.290Z,7.49
2018-03-15T22:38:17.583Z,7.57
2018-03-15T22:40:46.667Z,7.39
2018-03-15T22:43:14.965Z,7.39
2018-03-15T22:45:44.028Z,7.20
2018-03-15T22:48:12.330Z,7.61
2018-03-15T22:50:41.405Z,7.52
2018-03-15T22:53:09.703Z,7.41
2018-03-15T22:55:38.194Z,7.41
2018-03-15T22:58:06.434Z,7.62
2018-03-15T23:00:34.722Z,7.68
2018-03-15T23:03:03.042Z,7.72
2018-03-15T23:05:32.091Z,7.76
2018-03-15T23:08:00.393Z,7.72
2018-03-15T23:10:28.698Z,7.63
2018-03-15T23:12:56.994Z,7.53
2018-03-15T23:15:26.046Z,7.53
2018-03-15T23:17:54.330Z,7.58
2018-03-15T23:20:22.632Z,7.52
2018-03-15T23:22:50.910Z,7.65
2018-03-15T23:25:19.199Z,7.40
2018-03-15T23:27:48.271Z,7.29
2018-03-15T23:30:16.550Z,7.19
2018-03-15T23:32:44.850Z,7.14
2018-03-15T23:35:13.135Z,7.31
2018-03-15T23:37:41.453Z,7.29
2018-03-15T23:40:09.736Z,7.13
2018-03-15T23:42:38.054Z,7.07
2018-03-15T23:45:06.344Z,7.05
2018-03-15T23:47:34.644Z,7.03
2018-03-15T23:50:03.701Z,6.99
2018-03-15T23:52:31.980Z,7.30
2018-03-15T23:55:00.264Z,7.35
2018-03-15T23:57:28.566Z,7.37
2018-03-15T23:59:56.865Z,7.43
